createdAt,value
2022-10-17T00:01:08.739Z,2.53
2022-10-17T00:03:38.504Z,2.92
2022-10-17T00:06:13.390Z,6.18
2022-10-17T00:08:45.207Z,6.00
2022-10-17T00:11:19.729Z,5.22
2022-10-17T00:13:50.289Z,4.75
2022-10-17T00:16:29.714Z,3.97
2022-10-17T00:18:57.927Z,4.70
2022-10-17T00:21:26.542Z,3.38
2022-10-17T00:23:55.734Z,9.63
2022-10-17T00:26:24.171Z,8.50
2022-10-17T00:28:54.001Z,6.30
2022-10-17T00:31:23.992Z,7.55
2022-10-17T00:33:52.749Z,10.55
2022-10-17T00:36:26.704Z,8.50
2022-10-17T00:38:57.086Z,5.18
2022-10-17T00:41:29.024Z,12.10
2022-10-17T00:44:03.336Z,11.48
2022-10-17T00:46:34.971Z,11.82
2022-10-17T00:49:10.566Z,14.43
2022-10-17T00:51:45.894Z,10.02
2022-10-17T00:54:16.444Z,12.20
2022-10-17T00:56:47.049Z,8.82
2022-10-17T00:59:17.513Z,10.70
2022-10-17T01:01:57.293Z,12.32
2022-10-17T01:04:28.004Z,12.27
2022-10-17T01:06:56.218Z,8.35
2022-10-17T01:09:25.704Z,9.50
2022-10-17T01:12:26.166Z,7.45
2022-10-17T01:15:13.285Z,9.27
2022-10-17T01:18:13.815Z,8.48
2022-10-17T01:20:59.787Z,10.40
2022-10-17T01:23:58.910Z,7.00
2022-10-17T01:26:48.663Z,10.32
2022-10-17T01:29:20.584Z,7.30
2022-10-17T01:31:55.648Z,5.87
2022-10-17T01:34:35.246Z,8.40
2022-10-17T01:37:21.015Z,11.07
2022-10-17T01:40:00.934Z,7.10
2022-10-17T01:42:36.293Z,9.90
2022-10-17T01:45:23.388Z,9.55
2022-10-17T01:47:54.062Z,21.13
2022-10-17T01:50:33.705Z,15.05
2022-10-17T01:53:28.115Z,16.58
2022-10-17T01:56:02.774Z,13.90
2022-10-17T01:58:48.470Z,18.23
2022-10-17T02:01:20.427Z,24.38
2022-10-17T02:03:51.627Z,10.48
2022-10-17T02:06:19.931Z,16.55
2022-10-17T02:08:50.623Z,22.00
2022-10-17T02:11:25.149Z,17.88
2022-10-17T02:14:22.022Z,20.00
2022-10-17T02:17:07.054Z,21.25
2022-10-17T02:19:53.681Z,18.38
2022-10-17T02:22:30.954Z,16.17
2022-10-17T02:25:13.933Z,12.90
2022-10-17T02:28:19.925Z,13.00
2022-10-17T02:30:48.138Z,16.25
2022-10-17T02:33:35.987Z,14.90
2022-10-17T02:36:12.275Z,11.85
2022-10-17T02:38:42.842Z,13.25
2022-10-17T02:41:17.273Z,15.18
2022-10-17T02:43:47.643Z,19.27
2022-10-17T02:46:17.405Z,15.75
2022-10-17T02:48:56.114Z,10.73
2022-10-17T02:51:45.729Z,13.93
2022-10-17T02:54:29.095Z,12.43
2022-10-17T02:57:07.507Z,11.60
2022-10-17T02:59:38.364Z,18.73
2022-10-17T03:02:07.765Z,17.17
2022-10-17T03:04:35.980Z,21.50
2022-10-17T03:07:04.146Z,16.75
2022-10-17T03:09:32.432Z,14.93
2022-10-17T03:12:00.608Z,14.95
2022-10-17T03:14:29.048Z,19.00
2022-10-17T03:16:57.126Z,14.50
2022-10-17T03:19:26.582Z,11.20
2022-10-17T03:21:55.338Z,9.32
2022-10-17T03:24:23.486Z,11.27
2022-10-17T03:26:51.822Z,14.35
2022-10-17T03:29:20.223Z,13.20
2022-10-17T03:31:49.092Z,11.75
2022-10-17T03:34:18.042Z,12.75
2022-10-17T03:36:47.026Z,9.95
2022-10-17T03:39:15.379Z,12.05
2022-10-17T03:41:43.704Z,11.13
2022-10-17T03:44:12.821Z,12.80
2022-10-17T03:46:41.304Z,14.35
2022-10-17T03:49:10.678Z,11.68
2022-10-17T03:51:38.976Z,13.55
2022-10-17T03:54:13.151Z,8.90
2022-10-17T03:56:41.410Z,20.60
2022-10-17T03:59:17.335Z,16.30
2022-10-17T04:01:53.862Z,11.88
2022-10-17T04:04:23.100Z,17.30
2022-10-17T04:06:51.427Z,22.63
2022-10-17T04:09:19.999Z,17.30
2022-10-17T04:11:59.577Z,12.00
2022-10-17T04:14:27.933Z,18.20
2022-10-17T04:16:56.074Z,14.10
2022-10-17T04:19:24.286Z,14.70
2022-10-17T04:21:55.047Z,17.25
2022-10-17T04:24:23.648Z,11.88
2022-10-17T04:27:11.796Z,16.48
2022-10-17T04:29:44.325Z,14.70
2022-10-17T04:32:18.348Z,21.85
2022-10-17T04:34:51.055Z,17.20
2022-10-17T04:37:22.186Z,14.80
2022-10-17T04:39:52.518Z,15.57
2022-10-17T04:42:21.336Z,13.60
2022-10-17T04:44:52.019Z,12.10
2022-10-17T04:47:20.229Z,12.93
2022-10-17T04:49:48.574Z,15.63
2022-10-17T04:52:17.488Z,8.88
2022-10-17T04:54:50.672Z,17.55
2022-10-17T04:57:20.115Z,23.10
2022-10-17T04:59:58.436Z,18.42
2022-10-17T05:02:45.187Z,16.95
2022-10-17T05:05:13.556Z,14.23
2022-10-17T05:07:42.132Z,14.15
2022-10-17T05:10:36.502Z,16.10
2022-10-17T05:13:06.313Z,11.98
2022-10-17T05:15:35.494Z,19.45
2022-10-17T05:18:05.525Z,14.13
2022-10-17T05:20:34.707Z,16.50
2022-10-17T05:23:03.323Z,17.35
2022-10-17T05:25:36.664Z,23.40
2022-10-17T05:28:04.822Z,21.27
2022-10-17T05:30:35.269Z,13.88
2022-10-17T05:33:08.627Z,17.70
2022-10-17T05:35:37.168Z,17.05
2022-10-17T05:38:06.608Z,21.15
2022-10-17T05:40:36.353Z,20.83
2022-10-17T05:43:04.496Z,19.33
2022-10-17T05:45:32.933Z,25.25
2022-10-17T05:48:02.272Z,19.88
2022-10-17T05:50:31.109Z,21.75
2022-10-17T05:53:06.601Z,19.80
2022-10-17T05:55:40.275Z,20.38
2022-10-17T05:58:11.705Z,23.88
2022-10-17T06:00:49.583Z,22.02
2022-10-17T06:03:18.219Z,21.30
2022-10-17T06:05:47.353Z,31.60
2022-10-17T06:08:15.545Z,24.08
2022-10-17T06:10:44.839Z,24.55
2022-10-17T06:13:12.874Z,23.48
2022-10-17T06:15:41.585Z,27.40
2022-10-17T06:18:12.609Z,31.73
2022-10-17T06:20:45.201Z,28.08
2022-10-17T06:23:17.263Z,34.05
2022-10-17T06:26:08.313Z,37.97
2022-10-17T06:28:37.284Z,37.88
2022-10-17T06:31:13.905Z,28.63
2022-10-17T06:33:44.617Z,31.70
2022-10-17T06:36:15.303Z,31.05
2022-10-17T06:38:45.301Z,28.97
2022-10-17T06:41:24.803Z,36.33
2022-10-17T06:43:55.232Z,34.53
2022-10-17T06:46:45.876Z,27.85
2022-10-17T06:49:17.188Z,27.23
2022-10-17T06:52:03.459Z,33.35
2022-10-17T06:54:44.194Z,32.33
2022-10-17T06:57:32.723Z,30.90
2022-10-17T07:00:22.530Z,28.60
2022-10-17T07:02:54.464Z,28.70
2022-10-17T07:05:22.616Z,32.72
2022-10-17T07:07:51.812Z,34.75
2022-10-17T07:10:20.388Z,38.95
2022-10-17T07:12:48.885Z,29.75
2022-10-17T07:15:17.087Z,34.00
2022-10-17T07:17:49.746Z,40.88
2022-10-17T07:20:20.188Z,37.58
2022-10-17T07:22:48.564Z,41.45
2022-10-17T07:25:16.644Z,28.77
2022-10-17T07:27:51.110Z,28.02
2022-10-17T07:30:20.475Z,26.02
2022-10-17T07:32:55.594Z,27.50
2022-10-17T07:35:23.850Z,24.20
2022-10-17T07:37:52.646Z,31.23
2022-10-17T07:40:22.280Z,25.98
2022-10-17T07:42:50.473Z,23.00
2022-10-17T07:45:20.096Z,26.40
2022-10-17T07:47:48.345Z,34.08
2022-10-17T07:50:18.103Z,29.75
2022-10-17T07:52:47.118Z,31.90
2022-10-17T07:55:15.423Z,28.42
2022-10-17T07:57:43.633Z,31.08
2022-10-17T08:00:12.163Z,37.83
2022-10-17T08:02:42.998Z,28.23
2022-10-17T08:05:11.325Z,24.17
2022-10-17T08:07:39.581Z,24.38
2022-10-17T08:12:37.385Z,24.38
2022-10-17T08:15:06.703Z,22.38
2022-10-17T08:17:39.295Z,17.88
2022-10-17T08:20:08.022Z,19.70
2022-10-17T08:22:36.627Z,23.63
2022-10-17T08:25:05.453Z,17.20
2022-10-17T08:27:36.782Z,22.60
2022-10-17T08:30:05.283Z,21.15
2022-10-17T08:32:33.475Z,18.48
2022-10-17T08:35:01.664Z,16.80
2022-10-17T08:37:30.124Z,19.08
2022-10-17T08:39:58.691Z,15.27
2022-10-17T08:42:44.893Z,17.67
2022-10-17T08:45:27.375Z,22.05
2022-10-17T08:48:06.302Z,14.93
2022-10-17T08:50:37.569Z,19.40
2022-10-17T08:53:24.247Z,12.55
2022-10-17T08:55:56.512Z,19.63
2022-10-17T08:58:33.104Z,17.33
2022-10-17T09:01:21.837Z,22.25
2022-10-17T09:04:17.214Z,19.52
2022-10-17T09:07:03.091Z,11.60
2022-10-17T09:09:43.613Z,18.67
2022-10-17T09:12:17.939Z,14.93
2022-10-17T09:15:03.758Z,15.15
2022-10-17T09:17:52.004Z,16.58
2022-10-17T09:20:34.012Z,17.65
2022-10-17T09:23:09.862Z,14.77
2022-10-17T09:25:47.812Z,17.00
2022-10-17T09:28:37.391Z,19.70
2022-10-17T09:31:25.633Z,17.13
2022-10-17T09:33:57.761Z,15.27
2022-10-17T09:36:38.107Z,18.40
2022-10-17T09:39:22.034Z,16.83
2022-10-17T09:41:56.790Z,24.00
2022-10-17T09:44:45.623Z,25.33
2022-10-17T09:47:25.703Z,18.00
2022-10-17T09:49:54.570Z,17.33
2022-10-17T09:52:30.545Z,16.30
2022-10-17T09:55:18.167Z,15.18
2022-10-17T09:58:01.166Z,13.07
2022-10-17T10:00:33.226Z,17.80
2022-10-17T10:03:20.168Z,16.35
2022-10-17T10:06:21.279Z,18.67
2022-10-17T10:08:55.597Z,14.90
2022-10-17T10:11:45.755Z,16.25
2022-10-17T10:14:20.924Z,17.17
2022-10-17T10:16:51.017Z,17.35
2022-10-17T10:19:37.437Z,20.38
2022-10-17T10:22:19.820Z,12.88
2022-10-17T10:25:17.097Z,15.65
2022-10-17T10:27:47.574Z,16.10
2022-10-17T10:30:29.254Z,15.10
2022-10-17T10:32:59.876Z,17.23
2022-10-17T10:35:36.490Z,16.17
2022-10-17T10:38:15.669Z,20.25
2022-10-17T10:40:50.278Z,13.88
2022-10-17T10:43:39.176Z,21.70
2022-10-17T10:46:21.350Z,12.80
2022-10-17T10:51:29.518Z,17.85
2022-10-17T10:54:33.486Z,18.98
2022-10-17T10:57:05.220Z,16.60
2022-10-17T10:59:58.884Z,15.38
2022-10-17T11:02:41.090Z,13.10
2022-10-17T11:08:21.083Z,15.55
2022-10-17T11:11:04.879Z,18.40
2022-10-17T11:13:46.429Z,23.73
2022-10-17T11:16:34.635Z,14.15
2022-10-17T11:19:58.519Z,17.02
2022-10-17T11:22:34.924Z,17.90
2022-10-17T11:28:39.156Z,20.65
2022-10-17T11:31:12.709Z,13.50
2022-10-17T11:33:57.473Z,23.55
2022-10-17T11:36:31.757Z,21.58
2022-10-17T11:39:11.284Z,20.83
2022-10-17T11:42:00.881Z,19.05
2022-10-17T11:44:48.238Z,18.55
2022-10-17T11:47:31.718Z,18.10
2022-10-17T11:53:26.481Z,23.15
2022-10-17T11:55:58.399Z,22.77
2022-10-17T11:58:53.567Z,23.17
2022-10-17T12:01:43.448Z,17.67
2022-10-17T12:04:49.470Z,20.02
2022-10-17T12:07:39.759Z,19.67
2022-10-17T12:10:34.509Z,18.10
2022-10-17T12:13:30.275Z,16.77
2022-10-17T12:16:17.749Z,13.38
2022-10-17T12:18:47.569Z,20.02
2022-10-17T12:21:19.082Z,14.35
2022-10-17T12:23:55.528Z,15.85
2022-10-17T12:26:29.952Z,12.80
2022-10-17T12:28:58.891Z,21.20
2022-10-17T12:31:33.542Z,15.15
2022-10-17T12:34:05.851Z,22.48
2022-10-17T12:36:34.354Z,14.38
2022-10-17T12:39:02.746Z,14.32
2022-10-17T12:41:40.079Z,15.63
2022-10-17T12:44:15.249Z,15.60
2022-10-17T12:47:20.999Z,14.00
2022-10-17T12:49:53.248Z,23.20
2022-10-17T12:52:53.782Z,16.23
2022-10-17T12:55:25.744Z,18.55
2022-10-17T12:57:57.080Z,16.15
2022-10-17T13:00:54.809Z,21.88
2022-10-17T13:03:35.444Z,24.95
2022-10-17T13:06:07.050Z,15.63
2022-10-17T13:08:43.898Z,17.08
2022-10-17T13:11:13.238Z,13.63
2022-10-17T13:13:50.190Z,17.95
2022-10-17T13:16:39.050Z,21.58
2022-10-17T13:19:19.250Z,16.38
2022-10-17T13:22:12.194Z,16.05
2022-10-17T13:24:41.867Z,14.88
2022-10-17T13:27:29.816Z,20.58
2022-10-17T13:30:00.420Z,22.65
2022-10-17T13:32:37.827Z,19.60
2022-10-17T13:35:09.324Z,13.73
2022-10-17T13:37:39.906Z,17.88
2022-10-17T13:40:40.255Z,19.15
2022-10-17T13:43:04.694Z,13.88
2022-10-17T13:45:36.024Z,17.40
2022-10-17T13:48:18.028Z,15.77
2022-10-17T13:50:50.082Z,22.92
2022-10-17T13:56:09.119Z,18.35
2022-10-17T13:58:49.794Z,17.77
2022-10-17T14:01:20.822Z,19.58
2022-10-17T14:03:54.142Z,24.10
2022-10-17T14:06:32.527Z,15.80
2022-10-17T14:09:05.814Z,15.63
2022-10-17T14:11:41.439Z,22.40
2022-10-17T14:14:22.731Z,13.90
2022-10-17T14:16:51.206Z,17.87
2022-10-17T14:19:38.491Z,20.15
2022-10-17T14:22:27.609Z,18.85
2022-10-17T14:25:01.511Z,20.05
2022-10-17T14:27:57.432Z,18.65
2022-10-17T14:33:23.719Z,19.27
2022-10-17T14:35:56.888Z,19.67
2022-10-17T14:38:25.901Z,18.17
2022-10-17T14:41:23.537Z,15.63
2022-10-17T14:44:06.872Z,11.30
2022-10-17T14:46:47.213Z,22.80
2022-10-17T14:49:25.357Z,25.20
2022-10-17T14:52:16.772Z,21.27
2022-10-17T14:54:48.619Z,14.10
2022-10-17T14:57:32.165Z,18.27
2022-10-17T15:00:00.544Z,23.55
2022-10-17T15:02:31.299Z,12.25
2022-10-17T15:05:00.043Z,20.97
2022-10-17T15:07:28.276Z,16.20
2022-10-17T15:09:56.952Z,16.63
2022-10-17T15:12:26.036Z,16.27
2022-10-17T15:14:54.468Z,16.27
2022-10-17T15:17:27.307Z,22.75
2022-10-17T15:19:56.804Z,14.57
2022-10-17T15:22:25.628Z,14.85
2022-10-17T15:24:54.009Z,17.70
2022-10-17T15:27:25.498Z,17.33
2022-10-17T15:29:53.879Z,14.98
2022-10-17T15:32:22.300Z,10.27
2022-10-17T15:34:51.406Z,16.65
2022-10-17T15:37:23.512Z,13.15
2022-10-17T15:39:54.958Z,12.23
2022-10-17T15:42:28.183Z,17.27
2022-10-17T15:44:57.426Z,15.20
2022-10-17T15:47:29.905Z,12.70
2022-10-17T15:49:58.780Z,10.70
2022-10-17T15:52:27.444Z,11.77
2022-10-17T15:54:57.417Z,14.50
2022-10-17T15:57:31.156Z,10.82
2022-10-17T16:00:00.963Z,10.45
2022-10-17T16:02:29.364Z,13.05
2022-10-17T16:04:57.930Z,10.82
2022-10-17T16:07:26.546Z,13.50
2022-10-17T16:09:54.953Z,10.35
2022-10-17T16:12:29.498Z,7.57
2022-10-17T16:14:57.825Z,10.52
2022-10-17T16:17:26.050Z,10.30
2022-10-17T16:19:54.320Z,10.40
2022-10-17T16:22:31.521Z,13.75
2022-10-17T16:24:59.915Z,11.73
2022-10-17T16:27:28.104Z,9.68
2022-10-17T16:29:56.383Z,11.48
2022-10-17T16:32:24.693Z,14.40
2022-10-17T16:34:52.837Z,14.18
2022-10-17T16:37:21.018Z,14.15
2022-10-17T16:39:49.271Z,15.77
2022-10-17T16:42:17.407Z,12.82
2022-10-17T16:44:45.982Z,13.77
2022-10-17T16:47:14.189Z,10.25
2022-10-17T16:49:45.174Z,16.05
2022-10-17T16:52:14.190Z,13.40
2022-10-17T16:54:42.344Z,16.10
2022-10-17T16:57:10.590Z,15.98
2022-10-17T16:59:39.337Z,20.70
2022-10-17T17:02:07.413Z,9.52
2022-10-17T17:04:35.589Z,13.57
2022-10-17T17:07:04.075Z,13.88
2022-10-17T17:09:32.205Z,8.77
2022-10-17T17:12:00.465Z,16.67
2022-10-17T17:14:28.696Z,12.20
2022-10-17T17:16:57.086Z,11.18
2022-10-17T17:19:25.300Z,10.02
2022-10-17T17:21:53.505Z,12.27
2022-10-17T17:24:22.224Z,13.93
2022-10-17T17:26:55.819Z,13.60
2022-10-17T17:29:25.431Z,12.98
2022-10-17T17:31:53.940Z,12.63
2022-10-17T17:34:22.110Z,12.80
2022-10-17T17:36:50.264Z,13.27
2022-10-17T17:39:18.310Z,21.30
2022-10-17T17:41:47.051Z,15.98
2022-10-17T17:44:16.917Z,13.88
2022-10-17T17:46:45.953Z,20.48
2022-10-17T17:49:14.480Z,14.13
2022-10-17T17:51:42.701Z,20.92
2022-10-17T17:54:10.891Z,13.05
2022-10-17T17:56:39.505Z,21.98
2022-10-17T17:59:07.745Z,9.90
2022-10-17T18:01:36.568Z,15.40
2022-10-17T18:04:06.308Z,16.33
2022-10-17T18:06:34.766Z,18.42
2022-10-17T18:09:03.552Z,15.32
2022-10-17T18:11:32.039Z,18.80
2022-10-17T18:14:04.188Z,16.80
2022-10-17T18:16:34.210Z,24.58
2022-10-17T18:19:06.829Z,28.75
2022-10-17T18:21:36.531Z,29.08
2022-10-17T18:24:05.169Z,31.13
2022-10-17T18:26:33.943Z,19.40
2022-10-17T18:29:02.183Z,22.42
2022-10-17T18:31:30.516Z,22.30
2022-10-17T18:33:59.748Z,30.77
2022-10-17T18:36:29.416Z,28.58
2022-10-17T18:38:57.722Z,22.67
2022-10-17T18:41:26.989Z,16.85
2022-10-17T18:43:56.291Z,20.30
2022-10-17T18:46:27.916Z,25.08
2022-10-17T18:48:56.674Z,23.52
2022-10-17T18:51:26.296Z,20.10
2022-10-17T18:53:57.501Z,18.05
2022-10-17T18:56:26.665Z,20.10
2022-10-17T18:58:55.477Z,26.77
2022-10-17T19:01:26.567Z,17.08
2022-10-17T19:03:58.155Z,20.30
2022-10-17T19:06:31.271Z,14.63
2022-10-17T19:09:01.011Z,23.42
2022-10-17T19:11:31.117Z,24.77
2022-10-17T19:14:01.720Z,20.48
2022-10-17T19:16:34.686Z,14.63
2022-10-17T19:19:07.180Z,19.70
2022-10-17T19:21:35.708Z,24.80
2022-10-17T19:24:06.826Z,25.77
2022-10-17T19:26:36.938Z,23.30
2022-10-17T19:29:06.557Z,25.63
2022-10-17T19:31:36.156Z,18.23
2022-10-17T19:34:05.101Z,25.40
2022-10-17T19:36:35.170Z,27.55
2022-10-17T19:39:05.789Z,20.10
2022-10-17T19:41:35.116Z,29.75
2022-10-17T19:44:03.964Z,47.10
2022-10-17T19:46:33.578Z,48.72
2022-10-17T19:49:02.505Z,27.15
2022-10-17T19:51:31.300Z,24.35
2022-10-17T19:54:01.440Z,17.40
2022-10-17T19:56:33.600Z,20.73
2022-10-17T20:01:32.805Z,46.10
2022-10-17T20:04:01.158Z,36.90
2022-10-17T20:06:29.770Z,29.73
2022-10-17T20:08:57.975Z,43.85
2022-10-17T20:11:28.229Z,30.27
2022-10-17T20:13:57.567Z,23.83
2022-10-17T20:16:37.997Z,21.48
2022-10-17T20:19:09.586Z,24.10
2022-10-17T20:21:39.125Z,22.02
2022-10-17T20:24:09.636Z,32.88
2022-10-17T20:26:39.418Z,30.63
2022-10-17T20:29:14.903Z,35.58
2022-10-17T20:31:45.366Z,25.73
2022-10-17T20:34:16.044Z,12.88
2022-10-17T20:36:44.912Z,20.23
2022-10-17T20:39:14.794Z,12.95
2022-10-17T20:41:43.802Z,21.10
2022-10-17T20:44:13.275Z,17.98
2022-10-17T20:46:48.627Z,18.45
2022-10-17T20:49:26.119Z,20.60
2022-10-17T20:51:54.376Z,16.10
2022-10-17T20:54:22.754Z,16.48
2022-10-17T20:56:51.457Z,21.85
2022-10-17T20:59:19.870Z,29.55
2022-10-17T21:01:48.892Z,28.50
2022-10-17T21:07:05.824Z,27.40
2022-10-17T21:09:34.544Z,21.77
2022-10-17T21:12:02.737Z,27.38
2022-10-17T21:14:31.007Z,19.73
2022-10-17T21:17:04.512Z,18.52
2022-10-17T21:19:33.430Z,22.17
2022-10-17T21:22:01.719Z,24.77
2022-10-17T21:24:30.047Z,16.05
2022-10-17T21:26:58.184Z,27.77
2022-10-17T21:29:26.672Z,25.83
2022-10-17T21:31:54.901Z,26.55
2022-10-17T21:34:24.482Z,19.60
2022-10-17T21:36:52.924Z,17.35
2022-10-17T21:39:21.323Z,30.95
2022-10-17T21:41:49.443Z,26.10
2022-10-17T21:44:23.359Z,24.48
2022-10-17T21:46:51.990Z,20.48
2022-10-17T21:49:23.305Z,20.85
2022-10-17T21:51:52.700Z,18.43
2022-10-17T21:54:21.937Z,28.42
2022-10-17T21:56:50.726Z,26.27
2022-10-17T21:59:18.878Z,26.88
2022-10-17T22:01:47.484Z,23.50
2022-10-17T22:04:19.077Z,28.02
2022-10-17T22:06:49.499Z,24.88
2022-10-17T22:09:23.674Z,25.25
2022-10-17T22:11:55.807Z,21.40
2022-10-17T22:14:27.523Z,24.95
2022-10-17T22:16:56.085Z,25.45
2022-10-17T22:19:26.596Z,24.35
2022-10-17T22:21:55.630Z,26.98
2022-10-17T22:24:24.196Z,22.33
2022-10-17T22:26:52.957Z,22.90
2022-10-17T22:29:21.789Z,25.00
2022-10-17T22:31:49.966Z,23.77
2022-10-17T22:34:19.049Z,19.75
2022-10-17T22:36:47.570Z,23.73
2022-10-17T22:39:16.015Z,29.65
2022-10-17T22:41:44.291Z,24.05
2022-10-17T22:44:12.423Z,27.77
2022-10-17T22:46:40.522Z,33.00
2022-10-17T22:49:08.674Z,36.20
2022-10-17T22:51:36.794Z,32.25
2022-10-17T22:54:04.945Z,24.00
2022-10-17T22:56:33.241Z,35.40
2022-10-17T22:59:01.428Z,31.50
2022-10-17T23:01:29.754Z,33.33
2022-10-17T23:03:58.017Z,28.08
2022-10-17T23:06:26.209Z,45.05
2022-10-17T23:08:54.326Z,40.67
2022-10-17T23:11:22.752Z,39.95
2022-10-17T23:13:51.045Z,35.97
2022-10-17T23:16:19.270Z,30.25
2022-10-17T23:18:47.327Z,37.05
2022-10-17T23:21:15.681Z,36.70
2022-10-17T23:23:43.792Z,39.28
2022-10-17T23:26:14.472Z,29.48
2022-10-17T23:28:43.648Z,38.55
2022-10-17T23:34:37.528Z,32.63
2022-10-17T23:37:05.789Z,35.97
2022-10-17T23:39:34.019Z,38.65
2022-10-17T23:42:02.195Z,42.33
2022-10-17T23:44:30.354Z,38.25
2022-10-17T23:46:58.577Z,48.92
2022-10-17T23:49:26.894Z,47.22
2022-10-17T23:51:55.323Z,45.78
2022-10-17T23:54:23.440Z,46.55
2022-10-17T23:56:51.734Z,43.20
2022-10-17T23:59:19.908Z,41.38
